• Join FlightAware (Why Join?)
  • Login
  • US Flag GB Flag 
18:08 EST


 

Airport Tracker/Info


-or-


 

Live Flight TrackerFlight Track Log ✈ N589H ✈ 16-Jan-2014 ✈ KILN - KPIE

Flight Track Log - Related Links

Times and Time Zones

All times are in EST time to prevent confusion due to time zone crossing. See the N589H flight status page for this flight to view local times or setup timezone preferences in your user account.

Time Position Orientation Groundspeed Altitude Reporting Facility
EST Latitude Longitude Course Direction KTS MPH feet Rate Location/Type
17:50 39.4044 -83.8286 175° South 148 170 2,900  Level Indianapolis Center
17:50 39.3767 -83.8347 190° South 177 204 4,300 1,860 Climbing Indianapolis Center
17:51 39.3394 -83.8283 172° South 187 215 5,400 1,500 Climbing Indianapolis Center
17:51 39.3422 -83.8294 343° North 175 201 5,400 1,320 Level Indianapolis Center
17:52 39.2861 -83.8228 175° South 188 216 6,800 1,320 Climbing Indianapolis Center
17:53 39.2242 -83.8136 173° South 215 247 8,200 1,260 Climbing Indianapolis Center
17:54 39.1600 -83.8072 176° South 229 264 9,500 1,260 Climbing Indianapolis Center
17:55 38.6019 -83.7019 175° South  Level Estimated
17:55 39.0917 -83.7994 175° South 244 281 10,900  Level Indianapolis Center
17:56 39.0089 -83.7894 175° South 250 288 12,500 1,500 Climbing Indianapolis Center
17:57 38.9383 -83.7808 175° South 253 291 14,100 1,560 Climbing Indianapolis Center
17:58 38.8719 -83.7731 175° South 243 280 15,800 1,620 Climbing Indianapolis Center
17:59 38.8464 -83.7706 176° South 237 273 16,500 1,800 Climbing Indianapolis Center
18:00 38.7817 -83.7650 176° South 234 269 18,400 1,740 Climbing Indianapolis Center
18:01 38.7192 -83.7572 174° South 228 262 20,200 1,740 Climbing Indianapolis Center
18:02 38.6456 -83.7494 175° South 231 266 22,100 1,740 Climbing Indianapolis Center
18:03 38.5806 -83.7406 174° South 234 269 23,900 1,740 Climbing Indianapolis Center
18:04 38.5169 -83.7333 175° South 231 266 25,700 1,800 Climbing Indianapolis Center
18:05 38.4497 -83.7272 176° South 214 246 27,700 1,680 Climbing Indianapolis Center
18:06 38.3950 -83.7203 174° South 199 229 29,300 1,320 Climbing Indianapolis Center
18:07 38.3381 -83.7136 175° South 204 235 30,500 900 Climbing Indianapolis Center
18:08 38.2739 -83.7075 176° South 228 262 31,200 660 Climbing Indianapolis Center
18:09 38.2042 -83.6994 175° South 248 285 31,900 360 Climbing Indianapolis Center
18:10 38.1153 -83.6892 175° South 272 313 32,000  Climbing Indianapolis Center
18:11 38.0319 -83.6808 175° South 295 339 32,000  Level Indianapolis Center
18:12 37.9458 -83.6708 175° South 307 353 32,000  Level Indianapolis Center
18:13 37.8578 -83.6617 175° South 315 362 32,000  Level Indianapolis Center
18:14 37.7694 -83.6519 175° South 318 366 32,000  Level Indianapolis Center
18:15 37.6794 -83.6403 174° South 322 371 32,000  Level Indianapolis Center
18:16 37.5753 -83.6311 176° South 323 372 32,000  Level Indianapolis Center
18:17 37.4864 -83.6206 175° South 320 368 32,000 180 Level Indianapolis Center
18:18 37.3969 -83.6106 175° South 321 369 32,400 480 Climbing Indianapolis Center
18:19 37.3147 -83.6019 175° South 300 345 33,000 240 Climbing Indianapolis Center
18:20 37.2319 -83.5933 175° South 297 342 33,000  Level Indianapolis Center
18:21 37.1339 -83.5819 175° South 301 346 33,000  Level Indianapolis Center
18:22 37.0489 -83.5736 176° South 306 352 33,000  Level Indianapolis Center
18:24 36.9631 -83.5644 175° South 309 356 33,000  Level Indianapolis Center
18:25 36.8769 -83.5542 175° South 310 357 33,000  Level Indianapolis Center
18:26 36.7906 -83.5456 175° South 311 358 33,000  Level Indianapolis Center
18:27 36.6897 -83.5353 175° South 312 359 33,000  Level Indianapolis Center
18:28 36.6033 -83.5272 176° South 313 360 33,000  Level Indianapolis Center
18:29 36.5161 -83.5169 175° South 314 361 33,000  Level Indianapolis Center
18:30 36.4308 -83.5083 175° South 311 358 33,000  Level Indianapolis Center
18:31 36.3306 -83.4978 175° South 310 357 33,000  Level Indianapolis Center
18:32 36.2444 -83.4886 175° South 310 357 33,000  Level Indianapolis Center
18:33 36.1578 -83.4792 175° South 311 358 33,000  Level Indianapolis Center
18:34 36.0714 -83.4711 176° South 311 358 33,000  Level Indianapolis Center
18:35 35.9839 -83.4614 175° South 313 360 33,000  Level Indianapolis Center
18:36 35.8956 -83.4528 175° South 316 364 33,000  Level Indianapolis Center
18:37 35.7922 -83.4408 175° South 319 367 33,000  Level Indianapolis Center
18:38 35.6939 -83.4353 177° South 313 360 33,000  Level Atlanta Center
18:39 35.6061 -83.4231 174° South 318 366 33,000  Level Atlanta Center
18:40 35.5164 -83.4161 176° South 318 366 33,000  Level Atlanta Center
18:41 35.4286 -83.4067 175° South 323 372 33,000  Level Atlanta Center
18:42 35.3411 -83.3972 175° South 323 372 33,000  Level Atlanta Center
18:43 35.2472 -83.3878 175° South 328 377 33,000  Level Atlanta Center
18:44 35.1489 -83.3758 174° South 328 377 33,000  Level Atlanta Center
18:45 35.0572 -83.3664 175° South 328 377 33,000  Level Atlanta Center
18:46 34.9672 -83.3569 175° South 328 377 33,000  Level Atlanta Center
18:47 34.8797 -83.3450 174° South 328 377 33,000  Level Atlanta Center
18:48 34.7878 -83.3383 177° South 333 383 33,000  Level Atlanta Center
18:49 34.6917 -83.3289 175° South 333 383 33,000  Level Atlanta Center
18:50 34.5997 -83.3169 174° South 333 383 33,000  Level Atlanta Center
18:51 34.5100 -83.3078 175° South 333 383 33,000  Level Atlanta Center
18:52 34.4139 -83.2986 176° South 333 383 33,000  Level Atlanta Center
18:53 34.3242 -83.2917 176° South 333 383 33,000  Level Atlanta Center
18:54 34.2406 -83.2850 176° South 333 383 33,000  Level Atlanta Center
18:55 34.1467 -83.2758 175° South 328 377 33,000  Level Atlanta Center
18:56 34.0547 -83.2667 175° South 338 389 33,000  Level Atlanta Center
18:57 33.9628 -83.2572 175° South 333 383 33,000  Level Atlanta Center
18:58 33.8711 -83.2483 175° South 333 383 33,000  Level Atlanta Center
18:59 33.7667 -83.2392 176° South 333 383 33,000  Level Atlanta Center
19:00 33.6747 -83.2300 175° South 333 383 33,000  Level Atlanta Center
19:01 33.5786 -83.2186 174° South 338 389 33,000  Level Atlanta Center
19:02 33.4867 -83.2094 175° South 338 389 33,000  Level Atlanta Center
19:03 33.3928 -83.2003 175° South 343 395 33,000  Level Atlanta Center
19:04 33.2967 -83.1914 176° South 348 400 33,000  Level Atlanta Center
19:05 33.2025 -83.1822 175° South 348 400 33,000  Level Atlanta Center
19:06 33.1108 -83.1733 175° South 343 395 33,000  Level Atlanta Center
19:07 33.0272 -83.1617 173° South 343 395 33,000  Level Atlanta Center
19:08 32.9311 -83.1528 176° South 343 395 33,000  Level Atlanta Center
19:09 32.8392 -83.1439 175° South 343 395 33,000 -420 Level Atlanta Center
19:10 32.7328 -83.1375 177° South 348 400 32,200 -540 Descending Atlanta Center
19:11 32.6344 -83.1261 174° South 353 406 32,000 -120 Descending Atlanta Center
19:13 32.4528 -83.1083 175° South 348 400 32,000  Level Atlanta Center
19:15 32.2542 -83.0867 175° South 351 404 32,000  Level Jacksonville Center
19:16 32.1497 -83.0767 175° South 346 398 32,000  Level Jacksonville Center
19:17 32.0558 -83.0692 176° South 346 398 32,000  Level Jacksonville Center
19:18 31.9619 -83.0592 175° South 346 398 32,000  Level Jacksonville Center
19:19 31.8700 -83.0517 176° South 346 398 32,000  Level Jacksonville Center
19:20 31.7739 -83.0417 175° South 346 398 32,000  Level Jacksonville Center
19:21 31.6800 -83.0317 175° South 346 398 32,000  Level Jacksonville Center
19:22 31.5819 -83.0242 176° South 346 398 32,000  Level Jacksonville Center
19:23 31.4878 -83.0167 176° South 351 404 32,000  Level Jacksonville Center
19:24 31.3939 -83.0044 174° South 346 398 32,000  Level Jacksonville Center
19:25 31.2981 -82.9972 176° South 346 398 32,000  Level Jacksonville Center
19:26 31.1997 -82.9872 175° South 346 398 32,000  Level Jacksonville Center
19:27 31.1081 -82.9775 175° South 346 398 32,000  Level Jacksonville Center
19:28 31.0097 -82.9700 176° South 351 404 32,000  Level Jacksonville Center
19:29 30.9139 -82.9628 176° South 346 398 32,000  Level Jacksonville Center
19:30 30.8364 -82.9506 172° South 351 404 32,000  Level Jacksonville Center
19:31 30.7175 -82.9458 178° South 351 404 32,000  Level Jacksonville Center
19:32 30.6236 -82.9361 175° South 351 404 32,000 -60 Level Jacksonville Center
19:33 30.5294 -82.9239 174° South 351 404 31,900 -600 Descending Jacksonville Center
19:34 30.4272 -82.9142 175° South 351 404 30,900 -1,020 Descending Jacksonville Center
19:35 30.3269 -82.9047 175° South 357 411 29,900 -1,020 Descending Jacksonville Center
19:36 30.2269 -82.8950 175° South 367 422 28,900 -960 Descending Jacksonville Center
19:37 30.1350 -82.8853 175° South 367 422 28,100 -900 Descending Jacksonville Center
19:38 30.0328 -82.8781 176° South 367 422 27,200 -1,140 Descending Jacksonville Center
19:39 29.9261 -82.8686 176° South 367 422 25,900 -1,380 Descending Jacksonville Center
19:40 29.8281 -82.8592 175° South 367 422 24,500 -1,380 Descending Jacksonville Center
19:41 29.7278 -82.8519 176° South 367 422 23,200 -1,320 Descending Jacksonville Center
19:42 29.6319 -82.8447 176° South 367 422 21,900 -1,200 Descending Jacksonville Center
19:43 29.5358 -82.8328 174° South 361 415 20,800 -1,140 Descending Jacksonville Center
19:44 29.4378 -82.8233 175° South 361 415 19,700 -1,200 Descending Jacksonville Center
19:45 29.3458 -82.8164 176° South 348 400 18,500 -1,080 Descending Jacksonville Center
19:46 29.2539 -82.8069 175° South 341 392 17,600 -1,020 Descending Jacksonville Center
19:47 29.1642 -82.7997 176° South 335 386 16,500 -1,140 Descending Jacksonville Center
19:48 29.0764 -82.7928 176° South 329 379 15,400 -1,140 Descending Jacksonville Center
19:49 28.9889 -82.7833 175° South 324 373 14,300 -1,140 Descending Jacksonville Center
19:50 28.9053 -82.7764 176° South 318 366 13,200 -420 Descending Jacksonville Center
19:53 28.7000 -82.7500 174° South 302 348 13,000 -180 Descending Tampa TRACON
19:54 28.6167 -82.7500 180° South 305 351 12,700 -900 Descending Tampa TRACON
19:55 28.5333 -82.7500 180° South 304 350 11,300 -1,560 Descending Tampa TRACON
19:56 28.4500 -82.7333 170° South 294 338 9,600 -1,920 Descending Tampa TRACON
19:57 28.3667 -82.7333 180° South 286 329 7,500 -2,100 Descending Tampa TRACON
19:58 28.2833 -82.7167 170° South 286 329 5,400 -1,680 Descending Tampa TRACON
19:59 28.2000 -82.7167 180° South 265 305 4,000 -720 Descending Tampa TRACON
20:00 28.1500 -82.7167 180° South 228 262 4,000 -120 Level Tampa TRACON
20:00 28.1000 -82.7333 196° South 185 213 3,800 -540 Descending Tampa TRACON
20:01 28.0500 -82.7500 196° South 198 228 3,000 -420 Descending Tampa TRACON
20:02 28.0000 -82.7833 210° Southwest 182 209 3,000  Level Tampa TRACON
20:03 27.9500 -82.7667 164° South 196 226 3,000  Level Tampa TRACON
20:04 27.9000 -82.7500 164° South 203 234 3,000 -240 Level Tampa TRACON
20:06 27.8500 -82.7333 164° South 177 204 2,600 -360 Descending Tampa TRACON
20:06 27.8167 -82.7000 139° Southeast 211 243 2,300 -540 Descending Tampa TRACON
20:07 27.8333 -82.6833 41° Northeast 167 192 1,700 -900 Descending Tampa TRACON
20:08 27.8833 -82.6833 360° North 127 146 600 -1,020 Descending Tampa TRACON